Time;durP1;ratioP1;P1;durP2;ratioP2;P2;SDS_P1;SDS_P2;PMS_P1;PMS_P2;Temp;Humidity;BMP_temperature;BMP_pressure;BME280_temperature;BME280_humidity;BME280_pressure;Samples;Min_cycle;Max_cycle;Signal;HPM_P1;HPM_P2
2022/03/16 00:00:21;;;;;;;;;13.25;12.00;;;;;13.77;65.01;101560.78;5049165;28;45496;-66
2022/03/16 00:02:47;;;;;;;;;22.25;14.75;;;;;13.69;65.17;101559.66;5050140;28;45141;-65
2022/03/16 00:05:13;;;;;;;;;18.75;16.00;;;;;13.41;65.42;101510.59;5049778;28;45005;-66
2022/03/16 00:07:39;;;;;;;;;14.00;14.00;;;;;13.25;65.60;101466.31;5049190;28;45663;-65
2022/03/16 00:10:07;;;;;;;;;17.50;15.75;;;;;13.77;65.31;101560.78;5050464;28;45133;-64
2022/03/16 00:12:33;;;;;;;;;15.25;15.25;;;;;13.34;65.29;101489.81;5049980;28;45463;-65
2022/03/16 00:14:59;;;;;;;;;13.75;13.75;;;;;13.81;65.23;101560.00;5050773;28;45036;-65
2022/03/16 00:17:24;;;;;;;;;14.00;13.00;;;;;13.82;65.07;101564.47;5050723;28;45431;-65
2022/03/16 00:19:49;;;;;;;;;16.50;16.50;;;;;13.88;65.26;101563.75;5051364;28;45420;-65
2022/03/16 00:22:15;;;;;;;;;15.50;15.50;;;;;13.76;64.76;101554.50;5050387;28;44997;-65
2022/03/16 00:24:40;;;;;;;;;13.00;13.00;;;;;13.90;65.17;101564.69;5050694;28;45246;-65
2022/03/16 00:27:05;;;;;;;;;15.00;12.50;;;;;13.87;64.99;101556.53;5069463;28;45639;-64
2022/03/16 00:29:31;;;;;;;;;14.75;13.50;;;;;13.89;64.68;101562.88;5070758;28;45078;-64
2022/03/16 00:31:59;;;;;;;;;15.00;15.00;;;;;13.89;64.72;101554.81;5068133;28;45233;-65
2022/03/16 00:34:24;;;;;;;;;18.50;14.75;;;;;13.90;64.76;101564.69;5069980;28;45174;-65
2022/03/16 00:36:49;;;;;;;;;15.50;15.50;;;;;13.90;64.67;101553.94;5070209;28;45235;-66
2022/03/16 00:39:15;;;;;;;;;19.00;16.25;;;;;13.91;64.68;101555.75;5066922;28;45200;-64
2022/03/16 00:41:40;;;;;;;;;18.50;15.00;;;;;13.79;64.28;101534.84;5069589;28;45869;-65
2022/03/16 00:44:06;;;;;;;;;11.75;11.75;;;;;13.94;64.63;101561.19;5069825;28;45265;-65
2022/03/16 00:46:33;;;;;;;;;17.00;15.25;;;;;13.91;64.13;101551.31;5069280;28;46589;-65
2022/03/16 00:48:58;;;;;;;;;12.50;11.50;;;;;13.89;64.19;101553.06;5069289;28;45194;-66
2022/03/16 00:51:24;;;;;;;;;12.50;11.00;;;;;13.94;64.51;101548.69;5062763;28;45213;-66
2022/03/16 00:53:49;;;;;;;;;15.25;13.50;;;;;13.91;63.99;101542.31;5052861;28;45270;-66
2022/03/16 00:56:15;;;;;;;;;19.75;14.75;;;;;13.98;64.18;101541.63;5052288;28;45188;-66
2022/03/16 00:58:40;;;;;;;;;12.75;12.75;;;;;13.98;63.77;101537.13;5051940;28;44906;-66
2022/03/16 01:01:06;;;;;;;;;14.00;11.25;;;;;13.99;64.10;101538.97;5050793;28;45045;-66
2022/03/16 01:03:33;;;;;;;;;13.00;13.00;;;;;13.69;63.50;101484.47;5051793;28;45069;-64
2022/03/16 01:05:58;;;;;;;;;14.75;12.75;;;;;14.02;63.68;101538.13;5050627;28;46282;-65
2022/03/16 01:08:24;;;;;;;;;11.00;11.00;;;;;14.00;63.61;101529.13;5051423;28;45005;-64
2022/03/16 01:10:49;;;;;;;;;19.25;17.00;;;;;14.01;63.67;101530.94;5052101;28;45065;-65
2022/03/16 01:13:15;;;;;;;;;11.75;10.25;;;;;13.99;63.52;101525.53;5051672;28;45452;-66
2022/03/16 01:15:41;;;;;;;;;15.25;14.00;;;;;13.97;63.65;101524.59;5050656;28;45142;-65
2022/03/16 01:18:06;;;;;;;;;16.25;13.50;;;;;13.89;63.88;101520.81;5068066;28;45089;-65
2022/03/16 01:20:32;;;;;;;;;17.25;13.75;;;;;13.82;64.15;101494.66;5071198;28;44969;-65
2022/03/16 01:22:57;;;;;;;;;13.00;13.00;;;;;13.81;64.08;101493.75;5071876;28;45088;-65
2022/03/16 01:25:23;;;;;;;;;18.00;15.00;;;;;14.00;63.70;101515.69;5069593;28;45153;-65
2022/03/16 01:27:48;;;;;;;;;16.75;15.50;;;;;13.98;64.04;101510.28;5071397;28;44930;-66
2022/03/16 01:30:13;;;;;;;;;14.50;12.75;;;;;13.97;64.01;101503.09;5070551;28;44938;-65
2022/03/16 01:32:39;;;;;;;;;14.25;13.25;;;;;13.72;63.89;101460.38;5071883;28;45007;-65
2022/03/16 01:35:06;;;;;;;;;13.25;12.25;;;;;13.94;63.70;101497.66;5069629;28;46639;-65
2022/03/16 01:37:32;;;;;;;;;10.00;10.00;;;;;13.91;63.64;101492.19;5070503;28;45437;-66
2022/03/16 01:39:57;;;;;;;;;14.75;12.00;;;;;13.91;63.37;101484.13;5071201;28;44991;-65
2022/03/16 01:42:23;;;;;;;;;12.50;12.50;;;;;13.99;63.88;101495.97;5069499;28;45303;-66
2022/03/16 01:44:50;;;;;;;;;4.50;2.00;;;;;13.97;63.69;101480.69;5070557;28;45635;-65
2022/03/16 01:47:17;;;;;;;;;12.00;10.50;;;;;14.00;63.67;101500.47;5070869;28;45115;-65
2022/03/16 01:49:43;;;;;;;;;13.50;12.75;;;;;13.97;63.40;101491.44;5071360;28;45180;-65
2022/03/16 01:52:10;;;;;;;;;14.25;14.00;;;;;13.95;63.27;101487.81;5087481;28;45204;-65
2022/03/16 01:54:38;;;;;;;;;13.00;12.25;;;;;13.95;63.38;101498.56;5065205;28;45325;-64
2022/03/16 01:57:04;;;;;;;;;12.75;11.75;;;;;13.94;63.67;101491.34;5071304;28;45143;-65
2022/03/16 01:59:30;;;;;;;;;16.25;13.25;;;;;13.93;63.10;101501.19;5070691;28;45102;-65
2022/03/16 02:01:55;;;;;;;;;11.00;11.00;;;;;13.93;63.20;101502.97;5069653;28;45288;-65
2022/03/16 02:04:21;;;;;;;;;13.75;11.25;;;;;13.85;63.22;101493.84;5071345;28;45106;-66
2022/03/16 02:06:46;;;;;;;;;12.25;11.25;;;;;13.72;63.28;101472.03;5071238;28;45005;-65
2022/03/16 02:09:12;;;;;;;;;14.00;12.00;;;;;13.86;63.70;101504.63;5071339;28;45188;-65
2022/03/16 02:11:38;;;;;;;;;15.75;15.25;;;;;13.85;63.35;101505.47;5071598;28;45074;-65
2022/03/16 02:14:03;;;;;;;;;13.00;13.00;;;;;13.79;63.66;101487.44;5069513;28;45532;-64
2022/03/16 02:16:35;;;;;;;;;10.25;9.00;;;;;13.83;63.80;101488.41;5070874;28;45015;-65
2022/03/16 02:19:00;;;;;;;;;13.50;12.25;;;;;13.63;63.64;101463.75;5074123;28;45040;-65
2022/03/16 02:21:28;;;;;;;;;12.00;11.50;;;;;13.69;63.19;101471.03;5075071;28;44930;-66
2022/03/16 02:23:53;;;;;;;;;12.25;9.25;;;;;13.77;63.73;101483.78;5072912;28;46411;-65
2022/03/16 02:26:23;;;;;;;;;15.25;12.50;;;;;13.79;63.16;101491.88;5074278;28;44934;-66
2022/03/16 02:28:49;;;;;;;;;13.50;11.25;;;;;13.58;63.57;101460.94;5073838;28;45087;-65
2022/03/16 02:31:17;;;;;;;;;16.75;15.25;;;;;13.72;63.59;101489.91;5075284;28;44986;-67
2022/03/16 02:33:42;;;;;;;;;18.25;16.00;;;;;13.74;63.86;101486.41;5072138;28;45337;-65
2022/03/16 02:36:09;;;;;;;;;16.50;16.50;;;;;13.74;63.98;101482.81;5074001;28;45002;-66
2022/03/16 02:38:34;;;;;;;;;14.25;11.75;;;;;13.66;63.25;101476.31;5075257;28;45062;-64
2022/03/16 02:41:00;;;;;;;;;12.50;10.00;;;;;13.59;63.53;101448.41;5075045;28;45271;-66
2022/03/16 02:43:26;;;;;;;;;14.25;13.25;;;;;13.72;63.18;101471.13;5079082;28;46338;-65
2022/03/16 02:45:51;;;;;;;;;18.00;16.00;;;;;13.73;63.22;101473.84;5054842;28;45194;-65
2022/03/16 02:48:16;;;;;;;;;17.25;13.25;;;;;13.72;63.54;101466.66;5054621;28;45032;-65
2022/03/16 02:50:41;;;;;;;;;17.50;14.00;;;;;13.71;63.55;101472.91;5054927;28;44979;-66
2022/03/16 02:53:07;;;;;;;;;16.50;14.75;;;;;13.69;64.12;101474.63;5054373;28;45104;-65
2022/03/16 02:55:32;;;;;;;;;17.25;17.25;;;;;13.60;63.71;101467.25;5054514;28;44956;-66
2022/03/16 02:57:58;;;;;;;;;17.00;15.00;;;;;13.61;64.40;101465.47;5054681;28;45390;-65
2022/03/16 03:00:26;;;;;;;;;20.75;18.25;;;;;13.57;63.58;101466.28;5061223;28;45273;-65
2022/03/16 03:02:52;;;;;;;;;16.25;14.50;;;;;13.54;63.82;101463.50;5074010;28;45864;-64
2022/03/16 03:05:18;;;;;;;;;18.75;16.00;;;;;13.50;64.09;101464.31;5074465;28;45343;-66
2022/03/16 03:07:43;;;;;;;;;17.25;17.00;;;;;13.42;64.33;101458.72;5077300;27;45051;-65
2022/03/16 03:10:09;;;;;;;;;20.00;16.00;;;;;13.14;64.90;101432.91;5054828;28;44961;-64
2022/03/16 03:12:35;;;;;;;;;18.00;17.75;;;;;13.12;65.45;101458.78;5054869;28;45049;-65
2022/03/16 03:15:04;;;;;;;;;19.25;19.00;;;;;13.09;65.56;101473.03;5054615;28;45009;-65
2022/03/16 03:17:30;;;;;;;;;16.00;16.00;;;;;12.98;66.40;101456.63;5054561;28;45028;-65
2022/03/16 03:19:56;;;;;;;;;15.75;13.75;;;;;13.14;65.47;101474.06;5052709;28;45159;-65
2022/03/16 03:22:26;;;;;;;;;19.75;17.00;;;;;13.22;65.76;101479.63;5053473;28;45558;-64
2022/03/16 03:24:52;;;;;;;;;16.00;14.75;;;;;13.23;65.06;101476.06;5052799;28;45237;-65
2022/03/16 03:27:17;;;;;;;;;21.00;18.50;;;;;13.16;65.32;101475.00;5051922;28;44905;-65
2022/03/16 03:29:42;;;;;;;;;21.00;16.00;;;;;13.05;65.53;101458.63;5050940;28;44823;-64
2022/03/16 03:32:08;;;;;;;;;14.00;14.00;;;;;13.21;65.99;101464.38;5051734;28;45483;-66
2022/03/16 03:34:33;;;;;;;;;19.75;15.00;;;;;13.25;64.97;101469.00;5052027;28;45454;-64
2022/03/16 03:36:58;;;;;;;;;13.75;12.50;;;;;13.24;64.99;101464.47;5051842;28;44925;-66
2022/03/16 03:39:24;;;;;;;;;22.00;16.00;;;;;13.31;64.76;101471.81;5052006;28;45439;-65
2022/03/16 03:41:49;;;;;;;;;20.75;17.50;;;;;13.34;64.63;101480.00;5050988;28;45153;-65
2022/03/16 03:44:15;;;;;;;;;17.50;16.50;;;;;13.38;64.56;101483.66;5051705;28;45599;-66
2022/03/16 03:46:40;;;;;;;;;22.25;17.00;;;;;13.41;64.44;101476.63;5068285;28;45066;-64
2022/03/16 03:49:05;;;;;;;;;23.75;17.75;;;;;13.42;64.86;101466.78;5072305;28;45163;-65
2022/03/16 03:51:31;;;;;;;;;20.75;15.25;;;;;13.28;64.97;101444.91;5073214;28;45142;-65
2022/03/16 03:53:56;;;;;;;;;13.00;13.00;;;;;13.44;64.30;101474.00;5073316;28;45080;-65
2022/03/16 03:56:21;;;;;;;;;15.25;13.75;;;;;13.41;64.77;101473.94;5073053;28;45129;-65
2022/03/16 03:58:47;;;;;;;;;18.50;16.25;;;;;13.41;64.73;101473.94;5073396;28;45359;-66
2022/03/16 04:01:15;;;;;;;;;20.00;17.75;;;;;13.44;64.07;101473.09;5072986;28;45153;-65
2022/03/16 04:03:41;;;;;;;;;16.25;14.50;;;;;13.36;64.53;101466.63;5073254;28;44959;-65
2022/03/16 04:06:07;;;;;;;;;18.50;17.75;;;;;13.40;64.78;101473.91;5072139;28;45091;-64
2022/03/16 04:08:32;;;;;;;;;18.25;18.25;;;;;13.38;64.67;101470.25;5072271;28;45163;-65
2022/03/16 04:10:58;;;;;;;;;18.00;15.50;;;;;13.29;64.78;101452.09;5072263;28;44989;-65
2022/03/16 04:13:23;;;;;;;;;19.50;18.25;;;;;13.36;64.69;101456.78;5069575;28;45083;-64
2022/03/16 04:15:48;;;;;;;;;16.75;16.50;;;;;13.28;64.86;101444.91;5073690;28;45365;-65
2022/03/16 04:18:14;;;;;;;;;16.75;15.50;;;;;13.36;64.80;101461.25;5074077;28;45111;-65
2022/03/16 04:20:39;;;;;;;;;22.50;19.25;;;;;13.30;64.64;101437.81;5073027;28;45099;-67
2022/03/16 04:23:04;;;;;;;;;20.50;17.00;;;;;13.18;64.93;101433.03;5073111;28;45173;-66
2022/03/16 04:25:30;;;;;;;;;18.50;16.00;;;;;13.26;64.45;101435.91;5073434;28;45168;-65
2022/03/16 04:27:55;;;;;;;;;21.00;17.25;;;;;13.27;65.21;101437.72;5073233;28;45142;-64
2022/03/16 04:30:20;;;;;;;;;15.00;14.75;;;;;13.27;64.91;101437.72;5072518;28;45789;-65
2022/03/16 04:32:51;;;;;;;;;16.00;15.25;;;;;13.23;64.58;101426.00;5069225;28;45060;-65
2022/03/16 04:35:17;;;;;;;;;16.00;16.00;;;;;13.15;65.39;101421.28;5072819;28;44946;-65
2022/03/16 04:37:43;;;;;;;;;14.00;13.75;;;;;13.22;65.42;101437.59;5072567;28;45215;-65
2022/03/16 04:40:08;;;;;;;;;24.50;21.75;;;;;13.22;64.71;101436.72;5070593;28;51776;-64
2022/03/16 04:42:34;;;;;;;;;18.50;18.25;;;;;13.03;65.70;101416.50;5071314;28;45403;-65
2022/03/16 04:44:59;;;;;;;;;26.75;19.75;;;;;12.94;65.85;101425.22;5068484;28;45234;-65
2022/03/16 04:47:24;;;;;;;;;23.50;20.00;;;;;12.85;66.14;101428.56;5050289;28;45052;-65
2022/03/16 04:49:49;;;;;;;;;26.00;19.50;;;;;12.81;66.08;101420.38;5049666;28;50477;-65
2022/03/16 04:52:15;;;;;;;;;18.75;15.00;;;;;12.85;66.63;101422.28;5049637;28;45171;-65
2022/03/16 04:54:40;;;;;;;;;20.00;18.50;;;;;12.87;65.91;101425.94;5050519;28;45056;-65
2022/03/16 04:57:05;;;;;;;;;18.25;17.25;;;;;12.88;65.94;101427.72;5049907;28;45258;-65
2022/03/16 04:59:31;;;;;;;;;17.25;15.00;;;;;12.85;66.93;101431.25;5049298;28;45054;-65
2022/03/16 05:01:56;;;;;;;;;17.50;17.25;;;;;12.90;66.12;101428.66;5049700;28;45000;-65
2022/03/16 05:04:22;;;;;;;;;21.50;19.75;;;;;12.76;67.25;101422.03;5049381;28;45273;-66
2022/03/16 05:06:47;;;;;;;;;21.00;17.75;;;;;12.90;65.62;101437.66;5049179;28;45487;-64
2022/03/16 05:09:12;;;;;;;;;21.00;18.50;;;;;12.94;65.83;101435.94;5048840;28;45635;-65
2022/03/16 05:11:40;;;;;;;;;21.00;20.00;;;;;12.96;66.40;101436.00;5048160;28;45143;-64
2022/03/16 05:14:06;;;;;;;;;21.25;17.25;;;;;12.97;66.53;101432.44;5049911;28;44992;-65
2022/03/16 05:16:31;;;;;;;;;26.75;15.00;;;;;12.97;66.42;101422.63;5060509;28;44998;-65
2022/03/16 05:18:56;;;;;;;;;21.25;16.50;;;;;12.47;66.39;101339.00;5069422;28;51753;-65
2022/03/16 05:21:22;;;;;;;;;21.00;18.00;;;;;12.88;66.73;101411.63;5053266;28;45360;-65
2022/03/16 05:23:47;;;;;;;;;21.75;19.75;;;;;12.95;65.91;101424.38;5051634;28;44949;-64
2022/03/16 05:26:12;;;;;;;;;18.25;18.25;;;;;12.98;66.44;101419.06;5063208;28;45191;-65
2022/03/16 05:28:38;;;;;;;;;21.00;18.00;;;;;12.99;66.15;101425.34;5046313;28;45433;-65
2022/03/16 05:31:03;;;;;;;;;20.50;18.00;;;;;12.90;66.37;101437.66;5049760;28;45243;-66
2022/03/16 05:33:28;;;;;;;;;22.25;19.00;;;;;12.74;67.25;101438.06;5048753;28;45486;-64
2022/03/16 05:35:54;;;;;;;;;28.00;20.25;;;;;12.76;66.67;101439.03;5047629;28;45643;-64
2022/03/16 05:38:20;;;;;;;;;20.25;19.00;;;;;12.63;67.84;101434.19;5048969;28;45650;-65
2022/03/16 05:40:45;;;;;;;;;15.75;15.75;;;;;12.63;68.26;101448.47;5062288;28;45087;-65
2022/03/16 05:43:13;;;;;;;;;22.50;20.75;;;;;12.65;67.04;101452.09;5071346;28;45162;-65
2022/03/16 05:45:39;;;;;;;;;19.75;18.75;;;;;12.68;67.07;101449.50;5069141;28;45461;-66
2022/03/16 05:48:05;;;;;;;;;24.50;22.25;;;;;12.64;67.07;101458.34;5069874;28;45767;-65
2022/03/16 05:50:30;;;;;;;;;24.00;21.00;;;;;12.65;67.48;101449.41;5068040;28;45022;-65
2022/03/16 05:52:56;;;;;;;;;25.00;22.25;;;;;12.67;66.81;101453.09;5065215;28;45452;-65
2022/03/16 05:55:22;;;;;;;;;20.75;17.50;;;;;12.65;67.41;101448.53;5068859;28;45139;-65
2022/03/16 05:57:49;;;;;;;;;24.50;17.25;;;;;12.65;67.25;101445.84;5060952;28;45455;-64
2022/03/16 06:00:16;;;;;;;;;25.50;22.25;;;;;12.58;67.26;101442.06;5052074;28;44953;-65
2022/03/16 06:02:42;;;;;;;;;24.75;21.50;;;;;12.61;67.21;101447.53;5051515;28;45034;-66
2022/03/16 06:05:08;;;;;;;;;22.25;18.50;;;;;12.47;67.74;101424.75;5051409;28;45250;-66
2022/03/16 06:07:33;;;;;;;;;21.25;21.25;;;;;12.56;67.67;101441.13;5049085;28;45825;-65
2022/03/16 06:09:59;;;;;;;;;24.50;21.25;;;;;12.64;67.04;101444.06;5049346;28;45367;-65
2022/03/16 06:12:25;;;;;;;;;28.00;23.00;;;;;12.68;67.56;101457.56;5048978;28;45363;-65
2022/03/16 06:14:50;;;;;;;;;21.75;18.50;;;;;12.62;67.54;101452.03;5050834;28;45287;-64
2022/03/16 06:17:15;;;;;;;;;21.25;20.00;;;;;12.67;67.12;101457.50;5050624;28;45538;-65
2022/03/16 06:19:41;;;;;;;;;24.75;21.25;;;;;12.60;67.20;101440.34;5049673;28;45162;-66
2022/03/16 06:22:06;;;;;;;;;19.75;14.75;;;;;12.60;66.79;101467.16;5050196;28;45195;-66
2022/03/16 06:24:32;;;;;;;;;30.00;25.00;;;;;12.59;67.96;101446.59;5050978;28;45099;-66
2022/03/16 06:26:57;;;;;;;;;35.00;27.75;;;;;12.55;67.46;101450.03;5049642;28;45574;-65
2022/03/16 06:29:22;;;;;;;;;31.00;26.25;;;;;12.50;68.11;101451.66;5048689;28;45016;-65
2022/03/16 06:31:48;;;;;;;;;23.75;22.00;;;;;12.44;68.30;101459.50;5049970;28;45152;-66
2022/03/16 06:34:14;;;;;;;;;42.50;35.25;;;;;12.27;68.18;101442.94;5050144;28;45280;-66
2022/03/16 06:36:40;;;;;;;;;33.25;30.50;;;;;12.38;68.82;101467.38;5048822;28;45577;-66
2022/03/16 06:39:05;;;;;;;;;26.00;22.25;;;;;12.25;68.17;101452.69;5048876;28;45426;-66
2022/03/16 06:41:31;;;;;;;;;24.50;22.75;;;;;12.34;68.12;101469.97;5048813;28;45211;-65
2022/03/16 06:43:56;;;;;;;;;24.00;20.50;;;;;12.39;68.82;101477.22;5049364;28;45455;-66
2022/03/16 06:46:22;;;;;;;;;31.75;28.75;;;;;12.24;69.20;101446.44;5049009;28;45675;-66
2022/03/16 06:48:47;;;;;;;;;29.00;23.25;;;;;12.29;68.17;101462.63;5049123;28;45089;-66
2022/03/16 06:51:13;;;;;;;;;26.75;23.00;;;;;12.39;68.14;101474.53;5050896;28;45238;-66
2022/03/16 06:53:38;;;;;;;;;27.00;23.75;;;;;12.38;68.20;101484.38;5050504;28;45031;-66
2022/03/16 06:56:04;;;;;;;;;36.50;25.50;;;;;12.34;68.43;101485.13;5049989;28;45165;-65
2022/03/16 06:58:30;;;;;;;;;26.50;23.75;;;;;12.31;68.20;101483.28;5049245;28;45216;-65
2022/03/16 07:00:55;;;;;;;;;23.00;21.25;;;;;12.39;68.13;101502.28;5049215;28;45327;-66
2022/03/16 07:03:23;;;;;;;;;27.75;26.00;;;;;12.43;68.62;101495.22;5052459;28;45164;-66
2022/03/16 07:05:49;;;;;;;;;27.50;24.25;;;;;12.49;68.27;101496.31;5053082;28;45419;-65
2022/03/16 07:08:14;;;;;;;;;32.00;28.50;;;;;12.23;67.99;101449.06;5052980;28;45092;-66
2022/03/16 07:10:43;;;;;;;;;26.75;24.50;;;;;12.44;67.96;101489.91;5053061;28;45274;-66
2022/03/16 07:13:11;;;;;;;;;29.50;26.25;;;;;12.46;67.37;101492.66;5053325;28;45190;-67
2022/03/16 07:15:38;;;;;;;;;30.00;26.00;;;;;12.50;67.93;101489.19;5058835;28;46950;-66
2022/03/16 07:18:03;;;;;;;;;30.50;25.00;;;;;12.41;67.84;101488.94;5073365;28;44909;-65
2022/03/16 07:20:30;;;;;;;;;30.00;25.25;;;;;12.41;68.64;101480.88;5072334;28;45199;-67
2022/03/16 07:23:10;;;;;;;;;35.50;26.00;;;;;12.40;68.43;101482.63;5072106;28;45306;-65
2022/03/16 07:25:37;;;;;;;;;26.25;23.75;;;;;12.52;68.07;101499.09;5086334;27;45902;-66
2022/03/16 07:28:03;;;;;;;;;31.00;28.50;;;;;12.43;68.33;101480.06;5070850;28;45511;-66
2022/03/16 07:30:29;;;;;;;;;44.75;35.50;;;;;12.58;67.35;101487.66;5070038;28;45034;-67
2022/03/16 07:32:54;;;;;;;;;26.50;23.50;;;;;12.62;67.37;101486.88;5070161;28;45375;-66
2022/03/16 07:35:26;;;;;;;;;30.50;25.50;;;;;12.67;67.08;101485.25;5069889;28;45473;-68
2022/03/16 07:37:51;;;;;;;;;27.75;22.50;;;;;12.66;67.25;101494.16;5066480;28;45196;-65
2022/03/16 07:40:17;;;;;;;;;28.00;23.25;;;;;12.44;68.45;101463.13;5068195;28;44993;-67
2022/03/16 07:42:46;;;;;;;;;28.00;24.25;;;;;12.48;68.41;101475.75;5069320;28;45300;-67
2022/03/16 07:45:15;;;;;;;;;32.50;26.50;;;;;12.58;67.81;101493.00;5068643;28;46141;-68
2022/03/16 07:47:40;;;;;;;;;27.75;25.00;;;;;12.45;68.27;101480.09;5060500;28;45184;-69
2022/03/16 07:50:08;;;;;;;;;27.25;26.00;;;;;12.32;68.14;101446.66;5053642;28;45233;-67
2022/03/16 07:52:33;;;;;;;;;30.25;26.50;;;;;12.54;66.99;101459.84;5050805;28;45179;-66
2022/03/16 07:54:58;;;;;;;;;28.25;23.25;;;;;12.50;67.81;101457.91;5050933;28;45804;-66
2022/03/16 07:57:25;;;;;;;;;29.50;26.75;;;;;12.88;67.63;101492.09;5049969;28;46702;-67
2022/03/16 07:59:51;;;;;;;;;33.75;31.00;;;;;12.86;66.97;101478.63;5049710;28;45494;-66
2022/03/16 08:02:16;;;;;;;;;25.75;20.25;;;;;13.06;66.48;101489.03;5049943;28;44969;-66
2022/03/16 08:04:41;;;;;;;;;26.75;24.25;;;;;13.15;66.40;101496.41;5050276;28;45457;-65
2022/03/16 08:07:09;;;;;;;;;27.50;27.25;;;;;13.13;65.83;101482.06;5050816;28;45381;-68
2022/03/16 08:09:35;;;;;;;;;41.00;26.00;;;;;13.00;66.06;101457.59;5051195;28;45061;-66
2022/03/16 08:12:00;;;;;;;;;28.25;22.25;;;;;13.13;65.47;101487.44;5049967;28;44988;-65
2022/03/16 08:14:25;;;;;;;;;34.00;31.00;;;;;13.11;66.55;101479.31;5057833;28;47350;-64
2022/03/16 08:16:51;;;;;;;;;33.75;29.50;;;;;13.04;65.99;101453.22;5049079;28;48070;-66
2022/03/16 08:19:16;;;;;;;;;31.75;27.75;;;;;13.18;65.75;101475.03;5049813;28;44986;-66
2022/03/16 08:21:42;;;;;;;;;32.25;28.75;;;;;13.10;65.47;101458.75;5050180;28;45014;-65
2022/03/16 08:24:07;;;;;;;;;31.50;25.50;;;;;13.28;65.80;101472.66;5050994;28;45281;-66
2022/03/16 08:26:32;;;;;;;;;34.25;30.50;;;;;13.24;65.96;101460.00;5034731;28;45357;-65
2022/03/16 08:28:58;;;;;;;;;37.50;32.75;;;;;13.23;65.42;101451.91;5034424;28;45311;-67
2022/03/16 08:31:23;;;;;;;;;24.00;24.00;;;;;13.39;64.65;101469.38;5034697;28;45538;-66
2022/03/16 08:33:48;;;;;;;;;33.00;28.25;;;;;13.43;64.80;101468.63;5044560;28;46461;-66
2022/03/16 08:36:14;;;;;;;;;24.50;24.50;;;;;13.47;64.47;101474.97;5045894;28;45437;-66
2022/03/16 08:38:41;;;;;;;;;31.00;28.75;;;;;13.50;64.88;101469.69;5048875;28;45414;-66
2022/03/16 08:41:08;;;;;;;;;32.25;29.75;;;;;13.52;64.68;101490.31;5045250;28;45359;-66
2022/03/16 08:43:34;;;;;;;;;37.25;30.75;;;;;13.56;63.98;101472.50;5050914;28;45465;-66
2022/03/16 08:46:00;;;;;;;;;26.00;25.00;;;;;13.54;64.89;101472.47;5040869;28;45481;-66
2022/03/16 08:48:26;;;;;;;;;35.25;31.00;;;;;13.49;64.26;101470.53;5048390;28;45328;-65
2022/03/16 08:50:52;;;;;;;;;35.00;27.75;;;;;13.40;64.43;101485.53;5048702;28;45398;-66
2022/03/16 08:53:17;;;;;;;;;65.50;47.50;;;;;13.44;64.68;101490.09;5045037;28;46604;-65
2022/03/16 08:55:43;;;;;;;;;36.50;32.00;;;;;13.42;64.13;101494.53;5045047;28;45498;-66
2022/03/16 08:58:08;;;;;;;;;38.25;34.25;;;;;13.35;64.75;101500.59;5043680;28;45493;-65
2022/03/16 09:00:33;;;;;;;;;39.75;31.25;;;;;13.02;64.77;101463.91;5037546;28;45379;-66
2022/03/16 09:02:59;;;;;;;;;40.25;33.75;;;;;13.32;65.08;101504.94;5039941;28;46320;-66
2022/03/16 09:05:25;;;;;;;;;34.50;31.00;;;;;13.36;65.24;101513.13;5045599;28;45439;-66
2022/03/16 09:07:50;;;;;;;;;39.00;32.50;;;;;12.99;64.48;101430.72;5047078;28;45397;-65
2022/03/16 09:10:16;;;;;;;;;33.50;31.50;;;;;13.48;64.49;101517.03;5043596;28;45275;-65
2022/03/16 09:12:42;;;;;;;;;37.75;32.75;;;;;13.43;64.52;101508.88;5033640;28;46073;-66
2022/03/16 09:15:07;;;;;;;;;28.75;25.75;;;;;13.49;64.24;101503.66;5033806;28;45419;-66
2022/03/16 09:17:34;;;;;;;;;31.00;28.00;;;;;13.54;64.56;101501.09;5047025;28;45721;-65
2022/03/16 09:20:01;;;;;;;;;40.75;33.75;;;;;13.49;64.09;101502.75;5040631;28;45547;-64
2022/03/16 09:22:26;;;;;;;;;37.25;31.50;;;;;13.49;64.70;101510.81;5033482;28;46428;-65
2022/03/16 09:24:52;;;;;;;;;44.50;35.25;;;;;13.57;64.43;101504.75;5033672;28;45450;-66
2022/03/16 09:27:17;;;;;;;;;38.50;30.00;;;;;13.54;63.35;101476.94;5033065;28;45601;-65
2022/03/16 09:29:46;;;;;;;;;45.50;36.75;;;;;13.50;63.96;101465.22;5033805;28;45359;-64
2022/03/16 09:32:12;;;;;;;;;33.50;30.00;;;;;13.73;63.17;101500.69;5032950;28;46064;-64
2022/03/16 09:34:38;;;;;;;;;29.75;25.75;;;;;13.77;63.33;101499.00;5033613;28;45376;-65
2022/03/16 09:37:04;;;;;;;;;34.25;31.75;;;;;13.79;63.33;101498.19;5032019;28;45521;-65
2022/03/16 09:39:30;;;;;;;;;34.00;30.00;;;;;13.86;62.96;101501.00;5046916;28;45666;-65
2022/03/16 09:41:56;;;;;;;;;35.00;31.50;;;;;13.86;62.75;101490.25;5033712;28;45401;-65
2022/03/16 09:44:23;;;;;;;;;28.50;27.75;;;;;13.96;62.85;101505.75;5033989;28;45478;-65
2022/03/16 09:46:52;;;;;;;;;35.00;26.50;;;;;13.92;62.64;101507.44;5033895;28;45362;-64
2022/03/16 09:49:17;;;;;;;;;28.00;27.75;;;;;14.01;62.54;101510.34;5033154;28;45402;-66
2022/03/16 09:51:43;;;;;;;;;29.50;26.50;;;;;14.00;62.52;101491.50;5033040;28;45509;-65
2022/03/16 09:54:09;;;;;;;;;34.25;30.25;;;;;14.03;62.73;101505.03;5032823;28;45537;-64
2022/03/16 09:56:35;;;;;;;;;47.25;37.00;;;;;13.98;62.38;101486.09;5032633;28;45363;-64
2022/03/16 09:59:00;;;;;;;;;49.25;39.00;;;;;14.08;62.35;101487.22;5033443;28;45611;-65
2022/03/16 10:01:26;;;;;;;;;33.75;30.75;;;;;14.04;62.14;101479.06;5033306;28;46359;-65
2022/03/16 10:03:52;;;;;;;;;42.25;34.50;;;;;14.16;62.14;101482.03;5033248;28;45462;-65
2022/03/16 10:06:21;;;;;;;;;40.75;34.25;;;;;14.20;62.15;101478.53;5033351;28;45436;-64
2022/03/16 10:14:15;;;;;;;;;40.25;34.25;;;;;14.15;61.84;101472.16;5052645;28;45410;-64
2022/03/16 10:19:49;;;;;;;;;33.00;27.25;;;;;13.72;60.98;101377.13;5052589;28;45329;-67
2022/03/16 10:22:25;;;;;;;;;29.00;26.75;;;;;14.39;61.12;101479.88;5052281;28;46017;-65
2022/03/16 10:24:54;;;;;;;;;38.75;29.50;;;;;14.28;61.31;101436.63;5051688;28;45400;-64
2022/03/16 10:27:20;;;;;;;;;40.00;30.00;;;;;14.53;61.15;101456.88;5051912;28;45456;-64
2022/03/16 10:29:46;;;;;;;;;34.25;30.50;;;;;14.49;60.69;101440.66;5051800;28;45591;-64
2022/03/16 10:32:12;;;;;;;;;33.25;30.50;;;;;14.75;60.77;101476.22;5068038;28;47933;-66
2022/03/16 10:34:51;;;;;;;;;34.25;29.75;;;;;14.82;60.32;101467.38;5051816;28;45389;-64
2022/03/16 10:37:21;;;;;;;;;30.50;28.50;;;;;14.90;60.14;101479.22;5053124;28;45476;-66
2022/03/16 10:39:49;;;;;;;;;31.50;28.00;;;;;14.98;59.78;101482.06;5055789;28;45517;-66
2022/03/16 10:48:25;;;;;;;;;33.75;28.25;;;;;15.18;59.31;101469.00;5042063;28;45343;-66
2022/03/16 10:50:56;;;;;;;;;32.25;28.25;;;;;15.18;58.50;101463.63;5036648;28;45493;-68
2022/03/16 10:53:28;;;;;;;;;36.00;30.50;;;;;15.12;58.57;101458.09;5036193;28;46795;-65
2022/03/16 10:55:56;;;;;;;;;33.25;30.00;;;;;15.07;58.74;101459.81;5036063;28;45357;-66
2022/03/16 10:58:23;;;;;;;;;30.75;25.75;;;;;15.09;59.08;101448.16;5036075;28;45441;-65
2022/03/16 11:00:52;;;;;;;;;41.25;30.50;;;;;15.18;58.64;101442.06;5036153;28;45387;-67
2022/03/16 11:03:22;;;;;;;;;36.00;32.50;;;;;15.28;58.63;101444.06;5036078;28;46772;-65
2022/03/16 11:05:48;;;;;;;;;28.25;27.50;;;;;15.22;58.72;101418.81;5035581;28;45915;-65
2022/03/16 11:08:14;;;;;;;;;29.00;27.75;;;;;15.34;58.56;101426.19;5035667;28;45461;-66
2022/03/16 11:10:41;;;;;;;;;38.00;32.75;;;;;15.37;58.32;101408.28;5035887;28;45506;-67
2022/03/16 11:15:55;;;;;;;;;36.75;32.75;;;;;15.49;57.09;101421.06;5042083;28;45527;-64
2022/03/16 11:18:23;;;;;;;;;41.50;33.25;;;;;15.58;57.24;101420.34;5035488;28;45431;-64
2022/03/16 11:20:50;;;;;;;;;35.00;32.00;;;;;15.62;57.91;101412.34;5036151;28;45668;-65